createdAt,value
2017-11-04T00:01:35.566Z,8.84
2017-11-04T00:04:06.812Z,8.88
2017-11-04T00:06:41.368Z,8.90
2017-11-04T00:09:16.905Z,8.94
2017-11-04T00:11:51.444Z,8.96
2017-11-04T00:14:31.235Z,8.96
2017-11-04T00:17:13.253Z,9.02
2017-11-04T00:19:49.578Z,8.98
2017-11-04T00:22:21.402Z,9.00
2017-11-04T00:24:52.688Z,9.00
2017-11-04T00:27:24.246Z,9.07
2017-11-04T00:29:56.718Z,9.10
2017-11-04T00:32:28.078Z,9.07
2017-11-04T00:35:00.514Z,9.07
2017-11-04T00:37:32.757Z,9.04
2017-11-04T00:40:08.187Z,9.01
2017-11-04T00:42:39.020Z,9.06
2017-11-04T00:45:13.336Z,9.06
2017-11-04T00:47:44.691Z,9.02
2017-11-04T00:50:16.352Z,9.06
2017-11-04T00:52:47.377Z,9.03
2017-11-04T00:55:18.480Z,9.00
2017-11-04T00:57:49.753Z,9.01
2017-11-04T01:00:21.827Z,9.00
2017-11-04T01:02:52.927Z,9.00
2017-11-04T01:05:23.781Z,8.99
2017-11-04T01:07:55.639Z,8.95
2017-11-04T01:10:30.119Z,8.90
2017-11-04T01:13:01.080Z,8.88
2017-11-04T01:15:32.986Z,8.85
2017-11-04T01:18:04.135Z,8.77
2017-11-04T01:20:37.615Z,8.63
2017-11-04T01:23:09.025Z,8.59
2017-11-04T01:25:40.996Z,8.54
2017-11-04T01:28:12.376Z,8.50
2017-11-04T01:30:43.705Z,8.46
2017-11-04T01:33:14.553Z,8.42
2017-11-04T01:35:45.612Z,8.36
2017-11-04T01:38:16.371Z,8.38
2017-11-04T01:40:48.457Z,8.34
2017-11-04T01:43:19.827Z,8.31
2017-11-04T01:45:51.511Z,8.31
2017-11-04T01:48:21.076Z,8.19
2017-11-04T01:50:52.319Z,7.97
2017-11-04T01:53:20.985Z,7.70
2017-11-04T01:55:51.692Z,7.44
2017-11-04T01:58:25.939Z,7.54
2017-11-04T02:00:57.964Z,7.64
2017-11-04T02:03:29.790Z,7.35
2017-11-04T02:06:00.620Z,7.44
2017-11-04T02:08:32.089Z,7.35
2017-11-04T02:11:04.049Z,7.34
2017-11-04T02:13:35.184Z,7.40
2017-11-04T02:16:05.848Z,7.45
2017-11-04T02:18:37.748Z,7.18
2017-11-04T02:21:08.870Z,7.19
2017-11-04T02:23:40.812Z,7.07
2017-11-04T02:26:13.068Z,6.94
2017-11-04T02:28:44.202Z,6.91
2017-11-04T02:31:15.148Z,7.05
2017-11-04T02:33:46.381Z,6.66
2017-11-04T02:36:17.662Z,6.59
2017-11-04T02:38:48.964Z,6.77
2017-11-04T02:41:20.297Z,6.33
2017-11-04T02:43:51.442Z,6.44
2017-11-04T02:46:26.513Z,6.59
2017-11-04T02:48:57.878Z,6.57
2017-11-04T02:51:29.118Z,6.49
2017-11-04T02:54:00.252Z,6.47
2017-11-04T02:56:31.468Z,6.66
2017-11-04T02:59:02.250Z,6.59
2017-11-04T03:01:34.601Z,6.29
2017-11-04T03:04:06.795Z,6.48
2017-11-04T03:06:37.435Z,6.46
2017-11-04T03:09:09.625Z,6.05
2017-11-04T03:11:49.861Z,6.33
2017-11-04T03:14:20.751Z,6.47
2017-11-04T03:16:52.966Z,6.19
2017-11-04T03:19:27.163Z,6.39
2017-11-04T03:22:00.538Z,6.29
2017-11-04T03:24:34.634Z,6.21
2017-11-04T03:27:05.946Z,6.15
2017-11-04T03:29:37.472Z,6.14
2017-11-04T03:32:08.430Z,5.85
2017-11-04T03:34:39.431Z,6.12
2017-11-04T03:37:10.327Z,6.06
2017-11-04T03:39:41.362Z,5.90
2017-11-04T03:42:12.754Z,6.04
2017-11-04T03:44:44.315Z,5.96
2017-11-04T03:47:15.082Z,5.85
2017-11-04T03:49:46.579Z,5.77
2017-11-04T03:52:18.009Z,5.53
2017-11-04T03:54:49.412Z,5.72
2017-11-04T03:57:22.816Z,5.59
2017-11-04T03:59:54.922Z,5.75
2017-11-04T04:02:29.493Z,5.84
2017-11-04T04:05:00.590Z,5.59
2017-11-04T04:07:31.359Z,5.26
2017-11-04T04:10:02.932Z,5.51
2017-11-04T04:12:33.992Z,5.32
2017-11-04T04:15:05.506Z,5.06
2017-11-04T04:17:36.197Z,5.36
2017-11-04T04:20:07.542Z,5.38
2017-11-04T04:22:38.311Z,5.44
2017-11-04T04:25:10.331Z,5.12
2017-11-04T04:27:42.064Z,5.21
2017-11-04T04:30:14.023Z,5.41
2017-11-04T04:32:45.405Z,5.43
2017-11-04T04:35:19.510Z,4.92
2017-11-04T04:37:51.510Z,5.08
2017-11-04T04:40:25.019Z,4.90
2017-11-04T04:42:56.253Z,4.96
2017-11-04T04:45:29.612Z,5.06
2017-11-04T04:48:00.955Z,5.02
2017-11-04T04:50:33.432Z,4.96
2017-11-04T04:53:04.734Z,4.95
2017-11-04T04:55:35.627Z,4.68
2017-11-04T04:58:06.352Z,4.98
2017-11-04T05:00:37.607Z,4.80
2017-11-04T05:03:08.773Z,4.83
2017-11-04T05:05:39.839Z,4.94
2017-11-04T05:08:11.608Z,4.91
2017-11-04T05:10:42.560Z,4.64
2017-11-04T05:13:13.215Z,4.67
2017-11-04T05:15:44.137Z,4.69
2017-11-04T05:18:15.683Z,4.50
2017-11-04T05:20:47.795Z,4.49
2017-11-04T05:23:18.948Z,4.50
2017-11-04T05:25:50.344Z,4.66
2017-11-04T05:28:25.385Z,4.43
2017-11-04T05:30:56.560Z,4.43
2017-11-04T05:33:30.684Z,4.54
2017-11-04T05:36:02.395Z,4.66
2017-11-04T05:38:34.044Z,4.69
2017-11-04T05:41:05.296Z,4.72
2017-11-04T05:43:39.277Z,4.80
2017-11-04T05:46:11.120Z,4.78
2017-11-04T05:48:44.120Z,4.93
2017-11-04T05:51:16.814Z,4.72
2017-11-04T05:53:48.469Z,4.55
2017-11-04T05:56:20.150Z,4.37
2017-11-04T05:58:51.476Z,4.35
2017-11-04T06:01:26.513Z,4.27
2017-11-04T06:03:57.529Z,4.46
2017-11-04T06:09:08.255Z,4.78
2017-11-04T06:11:47.280Z,4.50
2017-11-04T06:14:20.599Z,4.32
2017-11-04T06:16:51.878Z,4.23
2017-11-04T06:19:26.599Z,4.30
2017-11-04T06:21:59.755Z,4.26
2017-11-04T06:24:35.716Z,4.20
2017-11-04T06:27:06.984Z,4.16
2017-11-04T06:29:39.328Z,4.38
2017-11-04T06:32:10.652Z,4.44
2017-11-04T06:34:44.580Z,4.41
2017-11-04T06:37:16.342Z,4.20
2017-11-04T06:39:47.706Z,4.23
2017-11-04T06:42:20.798Z,4.27
2017-11-04T06:44:51.983Z,4.17
2017-11-04T06:47:25.910Z,4.18
2017-11-04T06:50:01.580Z,4.30
2017-11-04T06:52:34.299Z,4.17
2017-11-04T06:55:05.836Z,4.36
2017-11-04T06:57:37.529Z,4.29
2017-11-04T07:00:10.663Z,4.13
2017-11-04T07:02:43.436Z,4.22
2017-11-04T07:05:15.474Z,4.32
2017-11-04T07:07:47.742Z,4.42
2017-11-04T07:10:19.343Z,4.32
2017-11-04T07:12:53.038Z,4.29
2017-11-04T07:15:27.001Z,4.43
2017-11-04T07:17:58.158Z,4.36
2017-11-04T07:20:29.931Z,4.25
2017-11-04T07:23:01.385Z,4.18
2017-11-04T07:25:33.278Z,4.39
2017-11-04T07:28:04.760Z,4.50
2017-11-04T07:30:38.452Z,4.59
2017-11-04T07:33:10.357Z,4.77
2017-11-04T07:35:41.619Z,4.80
2017-11-04T07:38:14.360Z,4.79
2017-11-04T07:40:52.202Z,5.02
2017-11-04T07:43:26.290Z,4.94
2017-11-04T07:45:59.918Z,5.14
2017-11-04T07:48:30.896Z,5.14
2017-11-04T07:51:04.468Z,5.05
2017-11-04T07:53:35.963Z,5.01
2017-11-04T07:56:12.056Z,4.77
2017-11-04T07:58:53.528Z,5.13
2017-11-04T08:01:26.901Z,5.13
2017-11-04T08:04:03.296Z,5.22
2017-11-04T08:06:37.788Z,5.14
2017-11-04T08:09:14.810Z,5.35
2017-11-04T08:11:48.655Z,5.56
2017-11-04T08:14:24.864Z,5.40
2017-11-04T08:16:58.429Z,5.22
2017-11-04T08:19:31.940Z,5.23
2017-11-04T08:22:06.953Z,5.30
2017-11-04T08:24:45.576Z,5.29
2017-11-04T08:27:30.485Z,5.63
2017-11-04T08:30:09.425Z,5.72
2017-11-04T08:32:42.004Z,5.60
2017-11-04T08:35:15.183Z,6.10
2017-11-04T08:37:47.170Z,5.97
2017-11-04T08:40:19.435Z,6.01
2017-11-04T08:43:07.855Z,5.89
2017-11-04T08:45:40.168Z,5.71
2017-11-04T08:48:18.129Z,6.05
2017-11-04T08:50:50.255Z,5.99
2017-11-04T08:53:33.996Z,6.17
2017-11-04T08:56:10.492Z,7.02
2017-11-04T08:58:41.947Z,6.70
2017-11-04T09:01:17.734Z,6.59
2017-11-04T09:06:39.912Z,7.03
2017-11-04T09:12:05.111Z,7.61
2017-11-04T09:17:25.563Z,7.94
2017-11-04T09:20:17.205Z,7.95
2017-11-04T09:22:50.692Z,8.06
2017-11-04T09:25:26.626Z,7.88
2017-11-04T09:28:00.728Z,8.05
2017-11-04T09:30:32.744Z,8.12
2017-11-04T09:33:06.551Z,8.25
2017-11-04T09:35:38.933Z,8.16
2017-11-04T09:38:10.856Z,8.15
2017-11-04T09:40:43.582Z,8.31
2017-11-04T09:43:15.180Z,8.54
2017-11-04T09:45:48.295Z,8.76
2017-11-04T09:48:20.085Z,9.12
2017-11-04T09:50:52.325Z,9.17
2017-11-04T09:53:26.817Z,9.40
2017-11-04T09:55:58.322Z,9.45
2017-11-04T09:58:30.956Z,9.38
2017-11-04T10:01:03.558Z,9.10
2017-11-04T10:03:35.797Z,9.03
2017-11-04T10:06:08.731Z,8.99
2017-11-04T10:08:39.571Z,8.80
2017-11-04T10:11:11.233Z,8.82
2017-11-04T10:13:47.434Z,9.13
2017-11-04T10:16:19.428Z,9.18
2017-11-04T10:18:51.222Z,9.49
2017-11-04T10:21:29.707Z,9.71
2017-11-04T10:24:03.453Z,9.76
2017-11-04T10:26:35.729Z,10.26
2017-11-04T10:29:11.665Z,10.35
2017-11-04T10:31:50.601Z,10.94
2017-11-04T10:34:24.874Z,11.10
2017-11-04T10:36:59.066Z,11.89
2017-11-04T10:39:31.235Z,12.01
2017-11-04T10:42:14.032Z,11.34
2017-11-04T10:45:01.135Z,11.80
2017-11-04T10:47:56.575Z,11.96
2017-11-04T10:50:40.513Z,12.77
2017-11-04T10:57:59.504Z,12.43
2017-11-04T11:00:44.121Z,12.33
2017-11-04T11:03:19.088Z,12.82
2017-11-04T11:05:57.450Z,12.68
2017-11-04T11:08:33.581Z,12.59
2017-11-04T11:11:12.444Z,12.63
2017-11-04T11:13:45.350Z,12.83
2017-11-04T11:16:18.527Z,12.44
2017-11-04T11:18:52.785Z,12.52
2017-11-04T11:21:31.761Z,12.53
2017-11-04T11:24:06.995Z,12.60
2017-11-04T11:26:41.427Z,12.83
2017-11-04T11:29:18.867Z,13.07
2017-11-04T11:31:55.694Z,13.21
2017-11-04T11:34:33.744Z,13.39
2017-11-04T11:37:12.411Z,13.37
2017-11-04T11:39:48.799Z,13.34
2017-11-04T11:42:26.119Z,13.33
2017-11-04T11:45:00.117Z,13.32
2017-11-04T11:47:37.259Z,13.38
2017-11-04T11:50:14.889Z,13.34
2017-11-04T11:52:50.048Z,13.46
2017-11-04T11:55:31.657Z,13.61
2017-11-04T11:58:05.277Z,13.71
2017-11-04T12:00:38.293Z,13.65
2017-11-04T12:03:20.763Z,13.61
2017-11-04T12:05:54.651Z,13.71
2017-11-04T12:08:31.297Z,13.72
2017-11-04T12:11:17.698Z,13.72
2017-11-04T12:13:51.809Z,13.75
2017-11-04T12:16:25.602Z,13.67
2017-11-04T12:19:00.945Z,13.64
2017-11-04T12:21:43.192Z,13.64
2017-11-04T12:24:25.287Z,13.61
2017-11-04T12:27:09.339Z,13.57
2017-11-04T12:29:50.104Z,13.51
2017-11-04T12:32:27.883Z,13.44
2017-11-04T12:35:06.122Z,13.45
2017-11-04T12:37:48.701Z,13.44
2017-11-04T12:40:26.256Z,13.40
2017-11-04T12:43:01.766Z,13.36
2017-11-04T12:45:37.206Z,13.35
2017-11-04T12:48:18.303Z,13.34
2017-11-04T12:51:00.621Z,13.33
2017-11-04T12:53:40.521Z,13.30
2017-11-04T12:58:53.966Z,13.28
2017-11-04T13:01:33.006Z,13.29
2017-11-04T13:04:09.852Z,13.29
2017-11-04T13:06:43.956Z,13.30
2017-11-04T13:09:20.587Z,13.34
2017-11-04T13:11:57.585Z,13.32
2017-11-04T13:14:34.041Z,13.32
2017-11-04T13:17:09.448Z,13.23
2017-11-04T13:19:44.544Z,13.21
2017-11-04T13:22:23.107Z,13.20
2017-11-04T13:25:06.373Z,13.18
2017-11-04T13:28:03.097Z,13.21
2017-11-04T13:30:38.685Z,13.19
2017-11-04T13:33:13.832Z,13.22
2017-11-04T13:35:51.028Z,13.19
2017-11-04T13:38:27.492Z,13.13
2017-11-04T13:41:01.274Z,13.10
2017-11-04T13:43:37.347Z,13.09
2017-11-04T13:46:12.644Z,13.06
2017-11-04T13:49:00.681Z,13.02
2017-11-04T13:51:33.412Z,13.04
2017-11-04T13:54:13.739Z,13.07
2017-11-04T13:56:49.860Z,13.09
2017-11-04T13:59:29.316Z,13.12
2017-11-04T14:02:12.035Z,13.11
2017-11-04T14:04:51.303Z,13.14
2017-11-04T14:07:29.411Z,13.12
2017-11-04T14:10:11.131Z,13.17
2017-11-04T14:12:47.373Z,13.21
2017-11-04T14:15:24.196Z,13.20
2017-11-04T14:17:56.435Z,13.23
2017-11-04T14:20:31.461Z,13.30
2017-11-04T14:23:05.561Z,13.32
2017-11-04T14:25:41.642Z,13.30
2017-11-04T14:28:15.009Z,13.29
2017-11-04T14:30:48.118Z,13.28
2017-11-04T14:33:25.321Z,13.27
2017-11-04T14:36:05.091Z,13.28
2017-11-04T14:38:38.438Z,13.25
2017-11-04T14:41:13.239Z,13.21
2017-11-04T14:43:45.423Z,13.21
2017-11-04T14:46:35.534Z,13.30
2017-11-04T14:49:17.453Z,13.33
2017-11-04T14:52:00.482Z,13.29
2017-11-04T14:54:40.869Z,13.30
2017-11-04T14:57:41.173Z,13.33
2017-11-04T15:00:19.809Z,13.29
2017-11-04T15:02:55.845Z,13.36
2017-11-04T15:05:28.992Z,13.33
2017-11-04T15:08:09.026Z,13.33
2017-11-04T15:10:45.107Z,13.31
2017-11-04T15:13:18.049Z,13.29
2017-11-04T15:15:51.383Z,13.28
2017-11-04T15:18:25.742Z,13.29
2017-11-04T15:21:00.349Z,13.29
2017-11-04T15:23:33.894Z,13.28
2017-11-04T15:26:11.700Z,13.29
2017-11-04T15:28:54.914Z,13.26
2017-11-04T15:34:40.263Z,13.21
2017-11-04T15:37:13.915Z,13.17
2017-11-04T15:39:54.367Z,13.15
2017-11-04T15:42:33.192Z,13.11
2017-11-04T15:45:13.930Z,13.09
2017-11-04T15:47:45.707Z,13.07
2017-11-04T15:50:19.315Z,13.03
2017-11-04T15:52:51.000Z,13.03
2017-11-04T15:55:26.770Z,12.94
2017-11-04T15:58:07.216Z,12.90
2017-11-04T16:00:44.347Z,12.93
2017-11-04T16:03:31.330Z,12.90
2017-11-04T16:06:16.589Z,12.80
2017-11-04T16:08:49.668Z,12.77
2017-11-04T16:11:30.558Z,12.63
2017-11-04T16:14:04.963Z,12.60
2017-11-04T16:16:45.118Z,12.55
2017-11-04T16:19:18.093Z,12.52
2017-11-04T16:21:56.701Z,12.56
2017-11-04T16:24:36.360Z,12.52
2017-11-04T16:27:35.432Z,12.51
2017-11-04T16:30:15.952Z,12.43
2017-11-04T16:32:57.155Z,12.41
2017-11-04T16:38:28.654Z,12.37
2017-11-04T16:41:13.069Z,12.23
2017-11-04T16:43:45.314Z,12.25
2017-11-04T16:46:17.231Z,12.28
2017-11-04T16:48:49.422Z,12.52
2017-11-04T16:51:22.179Z,12.49
2017-11-04T16:53:56.814Z,12.44
2017-11-04T16:56:32.895Z,12.41
2017-11-04T16:59:07.455Z,12.38
2017-11-04T17:01:43.388Z,12.40
2017-11-04T17:04:15.080Z,12.37
2017-11-04T17:06:48.797Z,12.32
2017-11-04T17:09:38.493Z,12.32
2017-11-04T17:12:12.806Z,12.27
2017-11-04T17:14:45.975Z,12.16
2017-11-04T17:19:58.658Z,12.10
2017-11-04T17:22:30.578Z,12.10
2017-11-04T17:25:19.536Z,12.00
2017-11-04T17:27:57.575Z,11.89
2017-11-04T17:30:34.548Z,11.88
2017-11-04T17:35:55.201Z,11.85
2017-11-04T17:38:31.805Z,11.86
2017-11-04T17:41:04.367Z,11.80
2017-11-04T17:43:35.894Z,11.83
2017-11-04T17:46:09.725Z,11.76
2017-11-04T17:48:40.676Z,11.78
2017-11-04T17:51:14.709Z,11.77
2017-11-04T17:53:54.316Z,11.71
2017-11-04T17:56:49.995Z,11.69
2017-11-04T18:00:55.362Z,11.64
2017-11-04T18:03:30.111Z,11.66
2017-11-04T18:06:05.502Z,11.60
2017-11-04T18:08:46.532Z,11.65
2017-11-04T18:11:20.024Z,11.60
2017-11-04T18:13:52.475Z,11.55
2017-11-04T18:16:44.613Z,11.54
2017-11-04T18:22:00.139Z,11.54
2017-11-04T18:24:43.197Z,11.60
2017-11-04T18:27:24.122Z,11.60
2017-11-04T18:29:57.469Z,11.57
2017-11-04T18:32:30.417Z,11.55
2017-11-04T18:35:07.003Z,11.57
2017-11-04T18:37:41.069Z,11.57
2017-11-04T18:40:15.674Z,11.61
2017-11-04T18:42:47.577Z,11.63
2017-11-04T18:45:19.219Z,11.68
2017-11-04T18:50:19.481Z,11.73
2017-11-04T18:52:50.712Z,11.79
2017-11-04T18:55:27.556Z,11.78
2017-11-04T18:58:00.837Z,11.80
2017-11-04T19:05:52.216Z,11.80
2017-11-04T19:08:28.933Z,11.79
2017-11-04T19:11:02.537Z,11.80
2017-11-04T19:13:37.778Z,11.81
2017-11-04T19:16:17.904Z,11.83
2017-11-04T19:18:56.305Z,11.82
2017-11-04T19:21:28.734Z,11.82
2017-11-04T19:24:06.820Z,11.80
2017-11-04T19:26:39.222Z,11.81
2017-11-04T19:29:12.623Z,11.82
2017-11-04T19:31:46.160Z,11.82
2017-11-04T19:34:20.204Z,11.82
2017-11-04T19:36:52.473Z,11.81
2017-11-04T19:39:26.382Z,11.81
2017-11-04T19:42:02.216Z,11.77
2017-11-04T19:44:35.180Z,11.85
2017-11-04T19:47:06.961Z,11.88
2017-11-04T19:49:38.588Z,11.87
2017-11-04T19:52:11.185Z,11.93
2017-11-04T19:54:42.687Z,11.97
2017-11-04T19:57:15.043Z,11.96
2017-11-04T19:59:52.001Z,11.98
2017-11-04T20:02:30.358Z,11.98
2017-11-04T20:05:06.577Z,11.99
2017-11-04T20:07:38.127Z,12.02
2017-11-04T20:10:10.944Z,12.04
2017-11-04T20:12:43.335Z,12.10
2017-11-04T20:15:15.491Z,12.10
2017-11-04T20:17:56.060Z,12.14
2017-11-04T20:20:28.154Z,12.17
2017-11-04T20:23:00.326Z,12.23
2017-11-04T20:25:32.014Z,12.18
2017-11-04T20:28:06.176Z,12.23
2017-11-04T20:30:39.787Z,12.21
2017-11-04T20:33:13.567Z,12.19
2017-11-04T20:35:47.729Z,12.19
2017-11-04T20:38:20.582Z,12.22
2017-11-04T20:40:54.716Z,12.19
2017-11-04T20:43:26.474Z,12.16
2017-11-04T20:45:59.367Z,12.17
2017-11-04T20:48:31.298Z,12.18
2017-11-04T20:51:02.820Z,12.11
2017-11-04T20:53:41.828Z,12.11
2017-11-04T20:56:14.490Z,12.07
2017-11-04T20:58:48.265Z,12.07
2017-11-04T21:01:23.357Z,12.05
2017-11-04T21:03:55.528Z,12.04
2017-11-04T21:06:29.302Z,12.04
2017-11-04T21:09:03.466Z,12.02
2017-11-04T21:11:39.140Z,12.00
2017-11-04T21:14:13.560Z,11.97
2017-11-04T21:16:46.102Z,11.95
2017-11-04T21:19:19.150Z,12.00
2017-11-04T21:21:52.678Z,11.94
2017-11-04T21:24:27.379Z,11.92
2017-11-04T21:27:00.339Z,11.93
2017-11-04T21:29:33.259Z,11.95
2017-11-04T21:32:06.817Z,11.93
2017-11-04T21:34:40.156Z,11.93
2017-11-04T21:37:14.198Z,11.91
2017-11-04T21:39:47.489Z,11.91
2017-11-04T21:42:20.121Z,11.90
2017-11-04T21:44:52.947Z,11.90
2017-11-04T21:47:36.218Z,11.89
2017-11-04T21:50:11.362Z,11.87
2017-11-04T21:52:44.412Z,11.85
2017-11-04T21:55:20.698Z,11.87
2017-11-04T21:57:53.562Z,11.80
2017-11-04T22:00:31.352Z,11.82
2017-11-04T22:03:04.828Z,11.83
2017-11-04T22:05:38.106Z,11.82
2017-11-04T22:08:10.359Z,11.81
2017-11-04T22:10:44.907Z,11.83
2017-11-04T22:13:18.599Z,11.83
2017-11-04T22:15:55.062Z,11.82
2017-11-04T22:18:29.430Z,11.80
2017-11-04T22:21:02.796Z,11.79
2017-11-04T22:23:44.290Z,11.73
2017-11-04T22:26:20.110Z,11.71
2017-11-04T22:28:53.365Z,11.72
2017-11-04T22:31:32.105Z,11.72
2017-11-04T22:34:05.404Z,11.68
2017-11-04T22:36:46.987Z,11.64
2017-11-04T22:39:20.955Z,11.61
2017-11-04T22:41:54.262Z,11.60
2017-11-04T22:44:32.724Z,11.58
2017-11-04T22:47:06.836Z,11.58
2017-11-04T22:49:41.028Z,11.55
2017-11-04T22:52:12.689Z,11.56
2017-11-04T22:54:44.658Z,11.66
2017-11-04T22:57:18.249Z,11.60
2017-11-04T22:59:52.295Z,11.61
2017-11-04T23:02:30.440Z,11.60
2017-11-04T23:05:10.951Z,11.54
2017-11-04T23:07:44.982Z,11.54
2017-11-04T23:10:27.502Z,11.57
2017-11-04T23:13:00.973Z,11.60
2017-11-04T23:15:34.534Z,11.60
2017-11-04T23:18:06.885Z,11.69
2017-11-04T23:20:39.940Z,11.71
2017-11-04T23:23:12.879Z,11.75
2017-11-04T23:25:44.120Z,11.78
2017-11-04T23:28:17.504Z,11.78
2017-11-04T23:30:50.879Z,11.85
2017-11-04T23:33:24.187Z,11.86
2017-11-04T23:35:56.817Z,11.86
2017-11-04T23:38:32.554Z,11.83
2017-11-04T23:41:04.898Z,11.81
2017-11-04T23:43:37.896Z,11.85
2017-11-04T23:46:11.178Z,11.92
2017-11-04T23:48:42.744Z,11.92
2017-11-04T23:51:20.178Z,11.92
2017-11-04T23:53:54.759Z,11.95
2017-11-04T23:56:45.778Z,11.97
